createdAt,value
2022-11-25T00:00:43.654Z,0.00
2022-11-25T00:01:43.636Z,0.00
2022-11-25T00:02:43.828Z,0.00
2022-11-25T00:03:43.511Z,0.00
2022-11-25T00:04:43.524Z,0.00
2022-11-25T00:05:43.524Z,0.00
2022-11-25T00:06:43.519Z,0.00
2022-11-25T00:07:43.628Z,0.00
2022-11-25T00:08:43.501Z,0.00
2022-11-25T00:09:43.669Z,0.00
2022-11-25T00:10:43.617Z,0.00
2022-11-25T00:11:43.466Z,0.00
2022-11-25T00:12:43.425Z,0.00
2022-11-25T00:13:43.426Z,0.00
2022-11-25T00:14:43.440Z,0.00
2022-11-25T00:15:43.389Z,0.00
2022-11-25T00:16:48.143Z,0.00
2022-11-25T00:17:43.457Z,0.00
2022-11-25T00:18:43.399Z,0.00
2022-11-25T00:19:43.401Z,0.00
2022-11-25T00:20:43.417Z,0.00
2022-11-25T00:21:43.429Z,0.00
2022-11-25T00:22:43.495Z,0.00
2022-11-25T00:23:43.529Z,0.00
2022-11-25T00:24:43.439Z,0.00
2022-11-25T00:25:43.442Z,0.00
2022-11-25T00:26:43.346Z,0.00
2022-11-25T00:27:43.360Z,0.00
2022-11-25T00:28:43.572Z,0.00
2022-11-25T00:29:43.267Z,0.00
2022-11-25T00:30:43.372Z,0.00
2022-11-25T00:31:43.405Z,0.00
2022-11-25T00:32:43.279Z,0.00
2022-11-25T00:33:43.235Z,0.00
2022-11-25T00:34:43.298Z,0.00
2022-11-25T00:35:43.203Z,0.00
2022-11-25T00:36:43.239Z,0.00
2022-11-25T00:37:43.325Z,0.00
2022-11-25T00:38:43.240Z,0.00
2022-11-25T00:39:43.192Z,0.00
2022-11-25T00:40:43.687Z,0.00
2022-11-25T00:41:43.294Z,0.00
2022-11-25T00:42:43.241Z,0.00
2022-11-25T00:43:43.303Z,0.00
2022-11-25T00:44:43.180Z,0.00
2022-11-25T00:45:43.259Z,0.00
2022-11-25T00:46:43.194Z,0.00
2022-11-25T00:47:44.351Z,0.00
2022-11-25T00:48:43.027Z,0.00
2022-11-25T00:49:43.347Z,0.00
2022-11-25T00:50:43.187Z,0.00
2022-11-25T00:51:43.507Z,0.00
2022-11-25T00:52:43.110Z,0.00
2022-11-25T00:53:43.046Z,0.00
2022-11-25T00:54:42.968Z,0.00
2022-11-25T00:55:43.007Z,0.00
2022-11-25T00:56:43.049Z,0.00
2022-11-25T00:57:42.983Z,0.00
2022-11-25T00:58:42.935Z,0.00
2022-11-25T00:59:42.905Z,0.00
2022-11-25T01:00:42.936Z,0.00
2022-11-25T01:01:42.912Z,0.00
2022-11-25T01:02:42.947Z,0.00
2022-11-25T01:03:43.045Z,0.00
2022-11-25T01:04:42.877Z,0.00
2022-11-25T01:05:42.945Z,0.00
2022-11-25T01:06:42.896Z,0.00
2022-11-25T01:07:43.041Z,0.00
2022-11-25T01:08:42.800Z,0.00
2022-11-25T01:09:42.976Z,0.00
2022-11-25T01:10:42.874Z,0.00
2022-11-25T01:11:42.840Z,0.00
2022-11-25T01:12:43.198Z,0.00
2022-11-25T01:13:42.962Z,0.00
2022-11-25T01:14:42.792Z,0.00
2022-11-25T01:15:43.735Z,0.00
2022-11-25T01:16:42.963Z,0.00
2022-11-25T01:17:42.782Z,0.00
2022-11-25T01:18:42.786Z,0.00
2022-11-25T01:19:42.821Z,0.00
2022-11-25T01:20:42.728Z,0.00
2022-11-25T01:21:42.750Z,0.00
2022-11-25T01:22:42.711Z,0.00
2022-11-25T01:23:43.024Z,0.00
2022-11-25T01:24:42.753Z,0.00
2022-11-25T01:25:42.734Z,0.00
2022-11-25T01:26:42.638Z,0.00
2022-11-25T01:27:42.670Z,0.00
2022-11-25T01:28:42.629Z,0.00
2022-11-25T01:29:43.556Z,0.00
2022-11-25T01:30:43.425Z,0.00
2022-11-25T01:31:42.665Z,0.00
2022-11-25T01:32:42.573Z,0.00
2022-11-25T01:33:42.557Z,0.00
2022-11-25T01:34:42.797Z,0.00
2022-11-25T01:35:42.619Z,0.00
2022-11-25T01:36:43.506Z,0.00
2022-11-25T01:37:42.543Z,0.00
2022-11-25T01:38:42.961Z,0.00
2022-11-25T01:39:42.603Z,0.00
2022-11-25T01:40:43.140Z,0.00
2022-11-25T01:41:42.916Z,0.00
2022-11-25T01:42:43.563Z,0.00
2022-11-25T01:43:42.623Z,0.00
2022-11-25T01:44:42.634Z,0.00
2022-11-25T01:45:42.493Z,0.00
2022-11-25T01:46:42.504Z,0.00
2022-11-25T01:47:43.329Z,0.00
2022-11-25T01:48:42.514Z,0.00
2022-11-25T01:49:42.999Z,0.00
2022-11-25T01:50:43.289Z,0.00
2022-11-25T01:51:42.472Z,0.00
2022-11-25T01:52:42.481Z,0.00
2022-11-25T01:53:42.646Z,0.00
2022-11-25T01:54:42.443Z,0.00
2022-11-25T01:55:42.447Z,0.00
2022-11-25T01:56:42.358Z,0.00
2022-11-25T01:57:42.367Z,0.00
2022-11-25T01:58:42.473Z,0.00
2022-11-25T01:59:46.682Z,0.00
2022-11-25T02:00:45.787Z,0.00
2022-11-25T02:01:42.331Z,0.00
2022-11-25T02:02:42.448Z,0.00
2022-11-25T02:03:42.401Z,0.00
2022-11-25T02:04:42.314Z,0.00
2022-11-25T02:05:43.334Z,0.00
2022-11-25T02:06:43.047Z,0.00
2022-11-25T02:07:42.404Z,0.00
2022-11-25T02:08:42.215Z,0.00
2022-11-25T02:09:42.221Z,0.00
2022-11-25T02:10:42.237Z,0.00
2022-11-25T02:11:43.207Z,0.00
2022-11-25T02:12:42.186Z,0.00
2022-11-25T02:13:42.089Z,0.00
2022-11-25T02:14:42.170Z,0.00
2022-11-25T02:15:42.618Z,0.00
2022-11-25T02:16:42.236Z,0.00
2022-11-25T02:17:42.074Z,0.00
2022-11-25T02:18:42.081Z,0.00
2022-11-25T02:19:42.032Z,0.00
2022-11-25T02:20:42.044Z,0.00
2022-11-25T02:21:42.614Z,0.00
2022-11-25T02:22:42.110Z,0.00
2022-11-25T02:23:42.089Z,0.00
2022-11-25T02:24:42.060Z,0.00
2022-11-25T02:25:41.994Z,0.00
2022-11-25T02:26:42.104Z,0.00
2022-11-25T02:27:42.143Z,0.00
2022-11-25T02:28:41.977Z,0.00
2022-11-25T02:29:42.028Z,0.00
2022-11-25T02:30:42.034Z,0.00
2022-11-25T02:31:42.034Z,0.00
2022-11-25T02:32:42.070Z,0.00
2022-11-25T02:33:41.908Z,0.00
2022-11-25T02:34:42.060Z,0.00
2022-11-25T02:35:41.997Z,0.00
2022-11-25T02:36:41.932Z,0.00
2022-11-25T02:37:41.878Z,0.00
2022-11-25T02:38:41.945Z,0.00
2022-11-25T02:39:41.847Z,0.00
2022-11-25T02:40:41.812Z,0.00
2022-11-25T02:41:41.864Z,0.00
2022-11-25T02:42:41.830Z,0.00
2022-11-25T02:43:41.877Z,0.00
2022-11-25T02:44:41.854Z,0.00
2022-11-25T02:45:41.902Z,0.00
2022-11-25T02:46:41.759Z,0.00
2022-11-25T02:47:41.875Z,0.00
2022-11-25T02:49:41.726Z,0.00
2022-11-25T02:50:41.822Z,0.00
2022-11-25T02:51:41.703Z,0.00
2022-11-25T02:52:41.693Z,0.00
2022-11-25T02:53:41.740Z,0.00
2022-11-25T02:54:41.948Z,0.00
2022-11-25T02:55:41.751Z,0.00
2022-11-25T02:56:41.862Z,0.00
2022-11-25T02:57:41.668Z,0.00
2022-11-25T02:58:41.636Z,0.00
2022-11-25T02:59:41.784Z,0.00
2022-11-25T03:00:41.739Z,0.00
2022-11-25T03:01:41.815Z,0.00
2022-11-25T03:02:41.664Z,0.00
2022-11-25T03:03:41.602Z,0.00
2022-11-25T03:04:41.687Z,0.00
2022-11-25T03:05:41.626Z,0.00
2022-11-25T03:06:42.548Z,0.00
2022-11-25T03:07:41.798Z,0.00
2022-11-25T03:08:41.640Z,0.00
2022-11-25T03:09:41.602Z,0.00
2022-11-25T03:10:41.642Z,0.00
2022-11-25T03:11:41.574Z,0.00
2022-11-25T03:12:41.478Z,0.00
2022-11-25T03:13:41.483Z,0.00
2022-11-25T03:14:41.543Z,0.00
2022-11-25T03:15:41.439Z,0.00
2022-11-25T03:16:41.562Z,0.00
2022-11-25T03:17:41.575Z,0.00
2022-11-25T03:18:41.465Z,0.00
2022-11-25T03:19:41.467Z,0.00
2022-11-25T03:20:41.403Z,0.00
2022-11-25T03:21:42.203Z,0.00
2022-11-25T03:22:41.444Z,0.00
2022-11-25T03:23:41.430Z,0.00
2022-11-25T03:24:41.400Z,0.00
2022-11-25T03:25:41.355Z,0.00
2022-11-25T03:26:41.325Z,0.00
2022-11-25T03:27:41.445Z,0.00
2022-11-25T03:28:41.355Z,0.00
2022-11-25T03:29:41.318Z,0.00
2022-11-25T03:30:41.342Z,0.00
2022-11-25T03:31:41.442Z,0.00
2022-11-25T03:32:41.300Z,0.00
2022-11-25T03:33:41.263Z,0.00
2022-11-25T03:34:41.301Z,0.00
2022-11-25T03:35:43.063Z,0.00
2022-11-25T03:36:41.341Z,0.00
2022-11-25T03:37:41.305Z,0.00
2022-11-25T03:38:41.248Z,0.00
2022-11-25T03:39:41.150Z,0.00
2022-11-25T03:40:41.158Z,0.00
2022-11-25T03:41:41.663Z,0.00
2022-11-25T03:42:41.257Z,0.00
2022-11-25T03:43:41.243Z,0.00
2022-11-25T03:44:41.086Z,0.00
2022-11-25T03:45:41.300Z,0.00
2022-11-25T03:46:41.100Z,0.00
2022-11-25T03:47:41.578Z,0.00
2022-11-25T03:48:41.111Z,0.00
2022-11-25T03:49:41.068Z,0.00
2022-11-25T03:50:41.104Z,0.00
2022-11-25T03:51:41.093Z,0.00
2022-11-25T03:52:41.119Z,0.00
2022-11-25T03:53:42.057Z,0.00
2022-11-25T03:54:41.137Z,0.00
2022-11-25T03:55:41.016Z,0.00
2022-11-25T03:56:41.034Z,0.00
2022-11-25T03:57:41.023Z,0.00
2022-11-25T03:58:41.071Z,0.00
2022-11-25T03:59:41.041Z,0.00
2022-11-25T04:00:41.041Z,0.00
2022-11-25T04:01:44.154Z,0.00
2022-11-25T04:02:41.035Z,0.00
2022-11-25T04:03:40.962Z,0.00
2022-11-25T04:04:40.967Z,0.00
2022-11-25T04:05:41.010Z,0.00
2022-11-25T04:06:40.987Z,0.00
2022-11-25T04:07:40.963Z,0.00
2022-11-25T04:08:40.896Z,0.00
2022-11-25T04:09:40.905Z,0.00
2022-11-25T04:10:40.908Z,0.00
2022-11-25T04:11:40.927Z,0.00
2022-11-25T04:12:40.881Z,0.00
2022-11-25T04:13:40.829Z,0.00
2022-11-25T04:14:40.836Z,0.00
2022-11-25T04:15:40.803Z,0.00
2022-11-25T04:16:40.848Z,0.00
2022-11-25T04:17:40.813Z,0.00
2022-11-25T04:18:40.878Z,0.00
2022-11-25T04:19:40.878Z,0.00
2022-11-25T04:20:40.772Z,0.00
2022-11-25T04:21:40.775Z,0.00
2022-11-25T04:22:40.746Z,0.00
2022-11-25T04:23:41.061Z,0.00
2022-11-25T04:24:40.762Z,0.00
2022-11-25T04:25:40.825Z,0.00
2022-11-25T04:26:40.720Z,0.00
2022-11-25T04:27:41.595Z,0.00
2022-11-25T04:28:40.725Z,0.00
2022-11-25T04:29:40.735Z,0.00
2022-11-25T04:30:40.690Z,0.00
2022-11-25T04:31:40.640Z,0.00
2022-11-25T04:32:40.655Z,0.00
2022-11-25T04:33:40.612Z,0.00
2022-11-25T04:34:40.776Z,0.00
2022-11-25T04:35:40.673Z,0.00
2022-11-25T04:36:40.875Z,0.00
2022-11-25T04:37:40.639Z,0.00
2022-11-25T04:38:40.590Z,0.00
2022-11-25T04:39:40.602Z,0.00
2022-11-25T04:40:40.611Z,0.00
2022-11-25T04:41:40.560Z,0.00
2022-11-25T04:42:40.616Z,0.00
2022-11-25T04:43:41.126Z,0.00
2022-11-25T04:44:40.518Z,0.00
2022-11-25T04:46:40.696Z,0.00
2022-11-25T04:47:40.550Z,0.00
2022-11-25T04:48:40.441Z,0.00
2022-11-25T04:49:40.560Z,0.00
2022-11-25T04:50:40.460Z,0.00
2022-11-25T04:51:40.468Z,0.00
2022-11-25T04:52:40.474Z,0.00
2022-11-25T04:53:40.687Z,0.00
2022-11-25T04:54:40.483Z,0.00
2022-11-25T04:55:40.492Z,1.00
2022-11-25T04:56:40.405Z,1.00
2022-11-25T04:57:40.310Z,1.00
2022-11-25T04:58:40.340Z,1.00
2022-11-25T04:59:40.334Z,1.00
2022-11-25T05:00:40.334Z,1.00
2022-11-25T05:01:40.403Z,1.00
2022-11-25T05:02:40.432Z,1.00
2022-11-25T05:03:44.977Z,1.00
2022-11-25T05:04:40.245Z,1.00
2022-11-25T05:05:40.333Z,1.00
2022-11-25T05:06:40.237Z,1.00
2022-11-25T05:07:40.285Z,1.00
2022-11-25T05:08:40.169Z,1.00
2022-11-25T05:09:40.157Z,1.00
2022-11-25T05:10:40.470Z,1.00
2022-11-25T05:11:40.217Z,1.00
2022-11-25T05:12:40.177Z,1.00
2022-11-25T05:13:40.176Z,1.00
2022-11-25T05:14:40.084Z,1.00
2022-11-25T05:15:40.090Z,1.00
2022-11-25T05:16:40.186Z,1.00
2022-11-25T05:17:40.147Z,1.00
2022-11-25T05:18:40.141Z,1.00
2022-11-25T05:19:40.149Z,1.00
2022-11-25T05:20:40.025Z,1.00
2022-11-25T05:21:40.064Z,1.00
2022-11-25T05:22:40.756Z,1.00
2022-11-25T05:23:40.074Z,1.00
2022-11-25T05:24:40.034Z,1.00
2022-11-25T05:25:41.422Z,1.00
2022-11-25T05:26:39.977Z,1.00
2022-11-25T05:27:40.017Z,1.00
2022-11-25T05:28:40.071Z,1.00
2022-11-25T05:29:39.984Z,1.00
2022-11-25T05:30:40.084Z,1.00
2022-11-25T05:31:40.621Z,1.00
2022-11-25T05:32:39.891Z,1.00
2022-11-25T05:33:39.914Z,1.00
2022-11-25T05:34:39.959Z,1.00
2022-11-25T05:35:39.958Z,1.00
2022-11-25T05:36:39.860Z,1.00
2022-11-25T05:37:39.868Z,1.00
2022-11-25T05:38:39.830Z,1.00
2022-11-25T05:39:39.838Z,1.00
2022-11-25T05:40:39.788Z,1.00
2022-11-25T05:41:39.893Z,1.00
2022-11-25T05:42:40.778Z,1.00
2022-11-25T05:43:39.862Z,1.00
2022-11-25T05:44:39.864Z,1.00
2022-11-25T05:45:39.940Z,1.00
2022-11-25T05:46:39.732Z,1.00
2022-11-25T05:47:39.833Z,1.00
2022-11-25T05:48:39.792Z,1.00
2022-11-25T05:49:39.703Z,1.00
2022-11-25T05:50:39.807Z,1.00
2022-11-25T05:51:39.965Z,1.00
2022-11-25T05:52:39.665Z,1.00
2022-11-25T05:53:41.620Z,1.00
2022-11-25T05:54:39.739Z,1.00
2022-11-25T05:55:39.682Z,1.00
2022-11-25T05:56:39.694Z,1.00
2022-11-25T05:57:39.963Z,1.00
2022-11-25T05:58:39.764Z,1.00
2022-11-25T05:59:40.120Z,1.00
2022-11-25T06:00:39.615Z,1.00
2022-11-25T06:01:39.675Z,1.00
2022-11-25T06:02:39.778Z,1.00
2022-11-25T06:03:39.725Z,1.00
2022-11-25T06:04:39.542Z,1.00
2022-11-25T06:05:39.704Z,1.00
2022-11-25T06:06:39.710Z,1.00
2022-11-25T06:07:39.612Z,1.00
2022-11-25T06:08:39.466Z,1.00
2022-11-25T06:09:39.531Z,1.00
2022-11-25T06:10:39.484Z,1.00
2022-11-25T06:11:39.594Z,1.00
2022-11-25T06:12:39.493Z,1.00
2022-11-25T06:13:39.504Z,1.00
2022-11-25T06:14:39.474Z,1.00
2022-11-25T06:15:39.519Z,1.00
2022-11-25T06:16:39.418Z,1.00
2022-11-25T06:17:39.633Z,1.00
2022-11-25T06:18:39.462Z,1.00
2022-11-25T06:19:39.505Z,1.00
2022-11-25T06:20:39.395Z,1.00
2022-11-25T06:21:39.406Z,1.00
2022-11-25T06:22:39.404Z,1.00
2022-11-25T06:23:40.234Z,1.00
2022-11-25T06:24:39.421Z,1.00
2022-11-25T06:25:39.319Z,1.00
2022-11-25T06:26:39.332Z,1.00
2022-11-25T06:28:10.724Z,1.00
2022-11-25T06:28:39.362Z,1.00
2022-11-25T06:29:41.180Z,1.00
2022-11-25T06:30:39.368Z,1.00
2022-11-25T06:31:39.411Z,1.00
2022-11-25T06:32:39.278Z,1.00
2022-11-25T06:33:39.282Z,1.00
2022-11-25T06:34:39.213Z,1.00
2022-11-25T06:35:39.634Z,1.00
2022-11-25T06:36:39.389Z,1.00
2022-11-25T06:37:39.198Z,1.00
2022-11-25T06:38:39.298Z,1.00
2022-11-25T06:39:39.214Z,1.00
2022-11-25T06:40:39.158Z,1.00
2022-11-25T06:41:42.597Z,1.00
2022-11-25T06:42:39.155Z,1.00
2022-11-25T06:43:39.285Z,1.00
2022-11-25T06:44:39.160Z,1.00
2022-11-25T06:45:39.141Z,1.00
2022-11-25T06:46:39.236Z,1.00
2022-11-25T06:47:39.163Z,1.00
2022-11-25T06:48:39.066Z,1.00
2022-11-25T06:49:39.102Z,1.00
2022-11-25T06:50:39.190Z,1.00
2022-11-25T06:51:39.032Z,1.00
2022-11-25T06:52:39.196Z,1.00
2022-11-25T06:53:39.222Z,1.00
2022-11-25T06:54:39.013Z,1.00
2022-11-25T06:55:39.008Z,1.00
2022-11-25T06:56:39.031Z,1.00
2022-11-25T06:57:39.033Z,1.00
2022-11-25T06:58:39.035Z,1.00
2022-11-25T06:59:39.044Z,1.00
2022-11-25T07:00:38.888Z,1.00
2022-11-25T07:01:39.108Z,1.00
2022-11-25T07:02:44.011Z,1.00
2022-11-25T07:03:38.966Z,1.00
2022-11-25T07:04:39.633Z,1.00
2022-11-25T07:05:38.983Z,1.00
2022-11-25T07:06:38.899Z,1.00
2022-11-25T07:07:38.969Z,1.00
2022-11-25T07:08:38.904Z,1.00
2022-11-25T07:09:39.619Z,1.00
2022-11-25T07:10:38.930Z,1.00
2022-11-25T07:11:38.928Z,1.00
2022-11-25T07:12:38.761Z,1.00
2022-11-25T07:13:38.878Z,1.00
2022-11-25T07:14:39.058Z,1.00
2022-11-25T07:15:38.914Z,1.00
2022-11-25T07:16:38.859Z,1.00
2022-11-25T07:17:38.875Z,1.00
2022-11-25T07:18:38.778Z,1.00
2022-11-25T07:19:38.718Z,1.00
2022-11-25T07:20:38.785Z,1.00
2022-11-25T07:21:38.786Z,1.00
2022-11-25T07:22:39.408Z,1.00
2022-11-25T07:23:38.701Z,1.00
2022-11-25T07:24:38.750Z,1.00
2022-11-25T07:25:38.704Z,1.00
2022-11-25T07:26:38.723Z,1.00
2022-11-25T07:27:38.717Z,1.00
2022-11-25T07:28:38.632Z,1.00
2022-11-25T07:31:22.375Z,1.00
2022-11-25T07:31:38.929Z,1.00
2022-11-25T07:32:39.207Z,1.00
2022-11-25T07:33:38.836Z,1.00
2022-11-25T07:34:38.584Z,1.00
2022-11-25T07:35:38.580Z,1.00
2022-11-25T07:36:38.592Z,1.00
2022-11-25T07:37:38.583Z,1.00
2022-11-25T07:38:43.493Z,1.00
2022-11-25T07:39:38.897Z,1.00
2022-11-25T07:40:38.545Z,1.00
2022-11-25T07:41:38.505Z,1.00
2022-11-25T07:42:38.505Z,1.00
2022-11-25T07:43:38.515Z,0.00
2022-11-25T07:44:38.538Z,0.00
2022-11-25T07:45:38.652Z,0.00
2022-11-25T07:46:38.695Z,0.00
2022-11-25T07:47:38.659Z,0.00
2022-11-25T07:48:38.494Z,0.00
2022-11-25T07:49:38.935Z,0.00
2022-11-25T07:50:38.481Z,0.00
2022-11-25T07:51:38.479Z,0.00
2022-11-25T07:52:38.507Z,0.00
2022-11-25T07:53:38.493Z,0.00
2022-11-25T07:54:38.499Z,0.00
2022-11-25T07:55:38.422Z,0.00
2022-11-25T07:56:38.407Z,0.00
2022-11-25T07:57:38.443Z,0.00
2022-11-25T07:58:42.824Z,1.00
2022-11-25T07:59:38.742Z,0.00
2022-11-25T08:00:38.349Z,0.00
2022-11-25T08:01:38.399Z,0.00
2022-11-25T08:02:38.572Z,0.00
2022-11-25T08:03:38.365Z,0.00
2022-11-25T08:04:38.352Z,0.00
2022-11-25T08:05:38.399Z,0.00
2022-11-25T08:06:38.262Z,0.00
2022-11-25T08:07:38.311Z,1.00
2022-11-25T08:08:38.281Z,1.00
2022-11-25T08:09:38.628Z,1.00
2022-11-25T08:10:38.150Z,1.00
2022-11-25T08:11:38.264Z,1.00
2022-11-25T08:12:38.203Z,1.00
2022-11-25T08:13:38.514Z,2.00
2022-11-25T08:14:38.211Z,0.00
2022-11-25T08:15:38.184Z,2.00
2022-11-25T08:16:38.113Z,1.00
2022-11-25T08:17:38.240Z,0.00
2022-11-25T08:18:38.203Z,0.00
2022-11-25T08:19:38.647Z,7.00
2022-11-25T08:20:38.049Z,7.00
2022-11-25T08:21:38.058Z,4.00
2022-11-25T08:22:38.017Z,3.00
2022-11-25T08:23:38.692Z,4.00
2022-11-25T08:24:38.084Z,2.00
2022-11-25T08:25:38.090Z,2.00
2022-11-25T08:26:38.045Z,1.00
2022-11-25T08:27:37.992Z,1.00
2022-11-25T08:28:38.028Z,1.00
2022-11-25T08:29:38.320Z,1.00
2022-11-25T08:30:37.973Z,1.00
2022-11-25T08:31:38.171Z,1.00
2022-11-25T08:32:37.968Z,2.00
2022-11-25T08:33:38.033Z,2.00
2022-11-25T08:34:37.943Z,2.00
2022-11-25T08:35:38.211Z,1.00
2022-11-25T08:36:37.954Z,1.00
2022-11-25T08:37:37.981Z,1.00
2022-11-25T08:38:37.859Z,2.00
2022-11-25T08:39:52.251Z,3.00
2022-11-25T08:40:37.885Z,5.00
2022-11-25T08:41:38.196Z,5.00
2022-11-25T08:42:37.894Z,4.00
2022-11-25T08:43:37.906Z,5.00
2022-11-25T08:44:37.815Z,4.00
2022-11-25T08:45:37.814Z,3.00
2022-11-25T08:46:37.843Z,4.00
2022-11-25T08:47:37.787Z,5.00
2022-11-25T08:48:37.739Z,9.00
2022-11-25T08:49:41.401Z,6.00
2022-11-25T08:50:37.707Z,9.00
2022-11-25T08:51:37.704Z,10.00
2022-11-25T08:52:37.751Z,13.00
2022-11-25T08:53:37.771Z,7.00
2022-11-25T08:54:37.677Z,11.00
2022-11-25T08:55:37.747Z,14.00
2022-11-25T08:56:37.653Z,14.00
2022-11-25T08:57:37.712Z,13.00
2022-11-25T08:58:37.659Z,18.00
2022-11-25T08:59:38.033Z,23.00
2022-11-25T09:00:37.877Z,22.00
2022-11-25T09:01:37.763Z,16.00
2022-11-25T09:02:37.687Z,13.00
2022-11-25T09:03:37.575Z,14.00
2022-11-25T09:04:38.053Z,9.00
2022-11-25T09:05:37.584Z,10.00
2022-11-25T09:06:37.551Z,5.00
2022-11-25T09:07:37.586Z,14.00
2022-11-25T09:08:37.534Z,20.00
2022-11-25T09:09:37.774Z,17.00
2022-11-25T09:10:37.538Z,5.00
2022-11-25T09:11:37.665Z,7.00
2022-11-25T09:12:37.559Z,9.00
2022-11-25T09:13:37.616Z,9.00
2022-11-25T09:14:37.454Z,6.00
2022-11-25T09:15:38.454Z,8.00
2022-11-25T09:16:37.620Z,6.00
2022-11-25T09:17:37.723Z,6.00
2022-11-25T09:18:37.466Z,6.00
2022-11-25T09:19:37.610Z,6.00
2022-11-25T09:20:37.388Z,5.00
2022-11-25T09:21:37.350Z,7.00
2022-11-25T09:22:37.400Z,5.00
2022-11-25T09:23:37.415Z,9.00
2022-11-25T09:24:37.420Z,15.00
2022-11-25T09:25:37.374Z,14.00
2022-11-25T09:26:37.322Z,11.00
2022-11-25T09:27:37.331Z,16.00
2022-11-25T09:28:37.336Z,16.00
2022-11-25T09:29:37.924Z,18.00
2022-11-25T09:30:37.247Z,7.00
2022-11-25T09:31:37.310Z,8.00
2022-11-25T09:32:37.211Z,20.00
2022-11-25T09:33:37.304Z,11.00
2022-11-25T09:34:37.422Z,14.00
2022-11-25T09:35:37.250Z,21.00
2022-11-25T09:36:37.264Z,53.00
2022-11-25T09:37:37.303Z,32.00
2022-11-25T09:38:41.684Z,14.00
2022-11-25T09:39:37.489Z,18.00
2022-11-25T09:40:37.174Z,30.00
2022-11-25T09:41:37.686Z,41.00
2022-11-25T09:42:37.125Z,46.00
2022-11-25T09:43:37.125Z,55.00
2022-11-25T09:44:37.130Z,57.00
2022-11-25T09:45:37.104Z,52.00
2022-11-25T09:46:37.203Z,52.00
2022-11-25T09:47:38.601Z,53.00
2022-11-25T09:48:37.095Z,56.00
2022-11-25T09:49:37.423Z,46.00
2022-11-25T09:50:37.071Z,47.00
2022-11-25T09:51:37.012Z,55.00
2022-11-25T09:52:37.022Z,55.00
2022-11-25T09:53:37.200Z,54.00
2022-11-25T09:54:37.038Z,58.00
2022-11-25T09:55:37.004Z,59.00
2022-11-25T09:56:37.866Z,59.00
2022-11-25T09:57:37.011Z,61.00
2022-11-25T09:58:36.990Z,60.00
2022-11-25T09:59:37.384Z,65.00
2022-11-25T10:00:37.052Z,61.00
2022-11-25T10:01:37.084Z,59.00
2022-11-25T10:02:37.131Z,61.00
2022-11-25T10:03:36.994Z,57.00
2022-11-25T10:04:36.959Z,62.00
2022-11-25T10:05:36.906Z,59.00
2022-11-25T10:06:37.049Z,59.00
2022-11-25T10:07:36.950Z,63.00
2022-11-25T10:08:37.023Z,70.00
2022-11-25T10:09:37.270Z,67.00
2022-11-25T10:10:36.896Z,71.00
2022-11-25T10:11:36.904Z,69.00
2022-11-25T10:12:36.841Z,70.00
2022-11-25T10:13:36.810Z,69.00
2022-11-25T10:14:36.754Z,86.00
2022-11-25T10:15:36.764Z,72.00
2022-11-25T10:16:37.011Z,89.00
2022-11-25T10:17:37.360Z,99.00
2022-11-25T10:18:36.737Z,106.00
2022-11-25T10:19:37.212Z,80.00
2022-11-25T10:20:36.699Z,101.00
2022-11-25T10:21:36.705Z,118.00
2022-11-25T10:22:36.762Z,91.00
2022-11-25T10:23:37.030Z,67.00
2022-11-25T10:24:41.078Z,69.00
2022-11-25T10:25:36.698Z,80.00
2022-11-25T10:26:36.688Z,74.00
2022-11-25T10:27:36.788Z,52.00
2022-11-25T10:28:36.647Z,62.00
2022-11-25T10:29:36.652Z,80.00
2022-11-25T10:30:36.734Z,72.00
2022-11-25T10:31:36.768Z,38.00
2022-11-25T10:32:36.574Z,53.00
2022-11-25T10:33:36.584Z,87.00
2022-11-25T10:34:37.150Z,45.00
2022-11-25T10:35:36.688Z,68.00
2022-11-25T10:36:36.572Z,66.00
2022-11-25T10:37:36.561Z,53.00
2022-11-25T10:38:36.921Z,55.00
2022-11-25T10:39:36.586Z,45.00
2022-11-25T10:40:37.204Z,40.00
2022-11-25T10:41:36.606Z,84.00
2022-11-25T10:42:36.617Z,62.00
2022-11-25T10:43:37.673Z,48.00
2022-11-25T10:44:36.805Z,36.00
2022-11-25T10:45:37.238Z,82.00
2022-11-25T10:47:11.104Z,90.00
2022-11-25T10:47:36.741Z,71.00
2022-11-25T10:48:41.332Z,61.00
2022-11-25T10:49:36.531Z,56.00
2022-11-25T10:50:36.436Z,31.00
2022-11-25T10:51:36.605Z,22.00
2022-11-25T10:52:37.675Z,43.00
2022-11-25T10:53:36.565Z,42.00
2022-11-25T10:54:36.412Z,70.00
2022-11-25T10:55:36.379Z,90.00
2022-11-25T10:56:36.431Z,61.00
2022-11-25T10:57:36.492Z,63.00
2022-11-25T10:58:36.802Z,63.00
2022-11-25T10:59:36.412Z,68.00
2022-11-25T11:00:36.434Z,72.00
2022-11-25T11:01:36.362Z,88.00
2022-11-25T11:02:36.428Z,87.00
2022-11-25T11:03:36.477Z,95.00
2022-11-25T11:04:36.632Z,83.00
2022-11-25T11:05:37.358Z,103.00
2022-11-25T11:06:36.230Z,88.00
2022-11-25T11:07:36.502Z,72.00
2022-11-25T11:08:36.287Z,84.00
2022-11-25T11:09:37.221Z,79.00
2022-11-25T11:10:36.216Z,77.00
2022-11-25T11:11:36.885Z,115.00
2022-11-25T11:12:36.209Z,126.00
2022-11-25T11:13:36.297Z,132.00
2022-11-25T11:14:36.457Z,136.00
2022-11-25T11:15:36.230Z,126.00
2022-11-25T11:16:36.313Z,137.00
2022-11-25T11:17:37.339Z,118.00
2022-11-25T11:18:36.110Z,87.00
2022-11-25T11:19:36.145Z,83.00
2022-11-25T11:20:36.147Z,151.00
2022-11-25T11:21:36.146Z,186.00
2022-11-25T11:22:36.278Z,230.00
2022-11-25T11:23:36.156Z,197.00
2022-11-25T11:24:37.188Z,169.00
2022-11-25T11:25:36.783Z,178.00
2022-11-25T11:26:36.172Z,107.00
2022-11-25T11:27:36.205Z,65.00
2022-11-25T11:28:36.287Z,83.00
2022-11-25T11:29:36.092Z,118.00
2022-11-25T11:30:36.040Z,112.00
2022-11-25T11:31:36.923Z,255.00
2022-11-25T11:32:36.139Z,209.00
2022-11-25T11:33:36.146Z,206.00
2022-11-25T11:34:36.175Z,357.00
2022-11-25T11:35:41.537Z,279.00
2022-11-25T11:36:35.923Z,275.00
2022-11-25T11:37:36.084Z,201.00
2022-11-25T11:38:36.076Z,157.00
2022-11-25T11:39:35.893Z,118.00
2022-11-25T11:40:36.923Z,277.00
2022-11-25T11:41:35.966Z,238.00
2022-11-25T11:42:35.971Z,272.00
2022-11-25T11:43:35.817Z,238.00
2022-11-25T11:44:36.268Z,185.00
2022-11-25T11:45:35.915Z,187.00
2022-11-25T11:46:35.894Z,177.00
2022-11-25T11:47:35.934Z,171.00
2022-11-25T11:48:35.821Z,162.00
2022-11-25T11:49:35.928Z,184.00
2022-11-25T11:50:35.929Z,207.00
2022-11-25T11:51:35.890Z,207.00
2022-11-25T11:52:35.917Z,204.00
2022-11-25T11:53:35.681Z,201.00
2022-11-25T11:54:36.197Z,192.00
2022-11-25T11:55:36.184Z,173.00
2022-11-25T11:56:36.382Z,161.00
2022-11-25T11:57:35.665Z,158.00
2022-11-25T11:58:35.711Z,139.00
2022-11-25T11:59:35.731Z,124.00
2022-11-25T12:00:35.719Z,98.00
2022-11-25T12:01:35.863Z,121.00
2022-11-25T12:02:35.851Z,147.00
2022-11-25T12:03:35.737Z,158.00
2022-11-25T12:04:36.693Z,148.00
2022-11-25T12:05:35.605Z,150.00
2022-11-25T12:06:35.587Z,85.00
2022-11-25T12:07:35.691Z,112.00
2022-11-25T12:08:35.562Z,110.00
2022-11-25T12:09:36.448Z,110.00
2022-11-25T12:10:36.341Z,116.00
2022-11-25T12:11:35.758Z,112.00
2022-11-25T12:12:36.362Z,114.00
2022-11-25T12:13:35.597Z,125.00
2022-11-25T12:14:35.800Z,144.00
2022-11-25T12:15:35.510Z,161.00
2022-11-25T12:16:35.822Z,199.00
2022-11-25T12:17:35.659Z,168.00
2022-11-25T12:18:35.485Z,140.00
2022-11-25T12:19:35.440Z,148.00
2022-11-25T12:20:35.464Z,196.00
2022-11-25T12:21:40.342Z,135.00
2022-11-25T12:22:35.500Z,257.00
2022-11-25T12:23:35.464Z,253.00
2022-11-25T12:24:35.775Z,127.00
2022-11-25T12:25:35.384Z,140.00
2022-11-25T12:26:35.502Z,372.00
2022-11-25T12:27:35.405Z,362.00
2022-11-25T12:28:35.415Z,349.00
2022-11-25T12:29:35.295Z,344.00
2022-11-25T12:30:35.307Z,359.00
2022-11-25T12:31:35.340Z,314.00
2022-11-25T12:32:35.340Z,319.00
2022-11-25T12:33:35.322Z,276.00
2022-11-25T12:34:35.740Z,175.00
2022-11-25T12:35:35.316Z,233.00
2022-11-25T12:36:35.298Z,247.00
2022-11-25T12:37:35.311Z,218.00
2022-11-25T12:38:35.242Z,192.00
2022-11-25T12:39:35.244Z,167.00
2022-11-25T12:40:35.259Z,169.00
2022-11-25T12:41:35.222Z,192.00
2022-11-25T12:42:35.169Z,230.00
2022-11-25T12:43:35.271Z,275.00
2022-11-25T12:44:35.587Z,259.00
2022-11-25T12:45:35.296Z,255.00
2022-11-25T12:46:35.304Z,215.00
2022-11-25T12:47:35.124Z,212.00
2022-11-25T12:48:35.214Z,261.00
2022-11-25T12:49:35.111Z,236.00
2022-11-25T12:50:35.141Z,166.00
2022-11-25T12:51:35.152Z,237.00
2022-11-25T12:52:35.389Z,296.00
2022-11-25T12:53:35.059Z,321.00
2022-11-25T12:54:35.391Z,250.00
2022-11-25T12:55:35.085Z,150.00
2022-11-25T12:56:35.077Z,69.00
2022-11-25T12:57:35.027Z,60.00
2022-11-25T12:58:35.074Z,75.00
2022-11-25T12:59:35.007Z,93.00
2022-11-25T13:00:43.053Z,134.00
2022-11-25T13:01:35.123Z,233.00
2022-11-25T13:02:35.090Z,258.00
2022-11-25T13:03:34.971Z,228.00
2022-11-25T13:04:35.191Z,230.00
2022-11-25T13:05:40.641Z,143.00
2022-11-25T13:06:35.047Z,183.00
2022-11-25T13:07:34.996Z,248.00
2022-11-25T13:08:34.989Z,289.00
2022-11-25T13:09:34.859Z,207.00